Time;durP1;ratioP1;P1;durP2;ratioP2;P2;SDS_P1;SDS_P2;PMS_P1;PMS_P2;Temp;Humidity;BMP_temperature;BMP_pressure;BME280_temperature;BME280_humidity;BME280_pressure;Samples;Min_cycle;Max_cycle;Signal;HPM_P1;HPM_P2
2024/04/13 00:01:21;;;;;;;4.38;3.10;;;19.90;74.80;;;;;;5469607;26;20014;-31
2024/04/13 00:03:48;;;;;;;4.13;2.80;;;19.90;74.80;;;;;;5480053;26;20034;-38
2024/04/13 00:06:13;;;;;;;3.95;3.03;;;19.90;74.90;;;;;;5472299;26;20027;-37
2024/04/13 00:08:39;;;;;;;4.55;3.13;;;19.90;74.90;;;;;;5473815;26;20014;-38
2024/04/13 00:11:08;;;;;;;4.15;3.05;;;19.80;74.80;;;;;;5473151;26;20002;-32
2024/04/13 00:13:37;;;;;;;4.22;2.97;;;19.80;74.80;;;;;;5464574;26;19994;-35
2024/04/13 00:16:04;;;;;;;3.63;2.67;;;19.80;74.90;;;;;;5479823;26;19995;-37
2024/04/13 00:18:33;;;;;;;4.63;2.85;;;19.80;74.90;;;;;;5475955;26;19998;-35
2024/04/13 00:21:00;;;;;;;4.40;3.15;;;19.80;74.90;;;;;;5484549;26;20002;-34
2024/04/13 00:23:26;;;;;;;4.55;3.28;;;19.80;74.90;;;;;;5476270;26;20092;-37
2024/04/13 00:25:52;;;;;;;5.05;3.10;;;19.70;74.90;;;;;;5474040;26;20011;-35
2024/04/13 00:28:18;;;;;;;5.03;3.40;;;19.70;74.90;;;;;;5471840;26;19998;-37
2024/04/13 00:30:45;;;;;;;4.40;3.20;;;19.70;74.90;;;;;;5466706;26;20006;-35
2024/04/13 00:33:11;;;;;;;4.13;3.30;;;19.70;75.10;;;;;;5472067;26;20011;-35
2024/04/13 00:35:37;;;;;;;4.82;3.22;;;19.60;74.90;;;;;;5490541;26;20005;-38
2024/04/13 00:38:04;;;;;;;3.95;3.00;;;19.60;75.00;;;;;;5473902;26;20018;-37
2024/04/13 00:40:30;;;;;;;4.47;3.08;;;19.60;75.00;;;;;;5468406;26;20006;-35
2024/04/13 00:43:09;;;;;;;3.58;2.90;;;19.60;75.00;;;;;;5474645;26;20056;-37
2024/04/13 00:45:44;;;;;;;3.83;2.80;;;19.60;75.10;;;;;;5476246;26;20007;-35
2024/04/13 00:48:11;;;;;;;;;;;19.50;75.00;;;;;;5477880;26;19995;-35
2024/04/13 00:50:40;;;;;;;4.60;3.10;;;19.40;75.00;;;;;;5460706;26;19924;-32
2024/04/13 00:53:09;;;;;;;4.03;3.10;;;19.40;75.00;;;;;;5485276;26;20013;-35
2024/04/13 00:55:35;;;;;;;3.75;2.90;;;19.50;75.10;;;;;;5483092;26;19991;-35
2024/04/13 00:58:01;;;;;;;3.85;2.90;;;19.40;75.00;;;;;;5489245;26;19998;-33
2024/04/13 01:00:27;;;;;;;3.90;2.85;;;19.40;75.10;;;;;;5484332;26;20461;-39
2024/04/13 01:02:53;;;;;;;4.22;2.70;;;19.40;75.10;;;;;;5477496;26;20017;-37
2024/04/13 01:05:20;;;;;;;4.20;2.97;;;19.40;75.10;;;;;;5478276;26;20023;-37
2024/04/13 01:07:46;;;;;;;4.05;2.90;;;19.30;75.10;;;;;;5478289;26;20572;-37
2024/04/13 01:10:14;;;;;;;4.00;2.80;;;19.40;75.20;;;;;;5473437;26;19998;-36
2024/04/13 01:12:43;;;;;;;3.60;2.88;;;19.40;75.20;;;;;;5469645;26;19995;-36
2024/04/13 01:15:09;;;;;;;3.88;2.85;;;19.30;75.10;;;;;;5484514;26;19994;-38
2024/04/13 01:17:37;;;;;;;3.83;2.90;;;19.30;75.10;;;;;;5467444;26;20387;-36
2024/04/13 01:20:04;;;;;;;3.38;2.70;;;19.30;75.10;;;;;;5474303;26;20222;-37
2024/04/13 01:22:32;;;;;;;6.80;3.00;;;19.30;75.10;;;;;;5490789;26;20005;-34
2024/04/13 01:24:58;;;;;;;3.83;2.92;;;19.30;75.10;;;;;;5471870;26;20002;-37
2024/04/13 01:27:24;;;;;;;4.30;3.00;;;19.20;75.10;;;;;;5467004;26;20006;-35
2024/04/13 01:29:50;;;;;;;3.88;2.90;;;19.20;75.10;;;;;;5479626;26;20002;-35
2024/04/13 01:32:16;;;;;;;3.83;2.70;;;19.20;75.10;;;;;;5484274;26;20009;-34
2024/04/13 01:34:42;;;;;;;3.40;2.55;;;19.20;75.20;;;;;;5477405;26;20001;-39
2024/04/13 01:37:08;;;;;;;3.78;2.85;;;19.20;75.10;;;;;;5472528;26;20013;-38
2024/04/13 01:39:34;;;;;;;3.97;2.70;;;19.20;75.20;;;;;;5468577;26;20015;-37
2024/04/13 01:42:00;;;;;;;3.83;2.78;;;19.20;75.20;;;;;;5472302;26;20017;-37
2024/04/13 01:44:27;;;;;;;4.10;2.75;;;19.10;75.20;;;;;;5482627;26;20014;-35
2024/04/13 01:46:52;;;;;;;3.58;2.60;;;19.10;75.20;;;;;;5483268;26;19995;-39
2024/04/13 01:49:18;;;;;;;4.05;2.60;;;19.10;75.20;;;;;;5477191;26;20002;-32
2024/04/13 01:51:44;;;;;;;3.20;2.47;;;19.10;75.20;;;;;;5468408;26;20013;-39
2024/04/13 01:54:10;;;;;;;3.38;2.50;;;19.10;75.20;;;;;;5466731;26;20007;-38
2024/04/13 01:56:36;;;;;;;3.55;2.70;;;19.10;75.10;;;;;;5470782;26;20013;-35
2024/04/13 01:59:03;;;;;;;4.13;2.83;;;19.00;75.10;;;;;;5477854;26;20010;-33
2024/04/13 02:01:31;;;;;;;3.50;2.70;;;19.00;75.20;;;;;;5467827;26;19998;-38
2024/04/13 02:03:56;;;;;;;3.53;2.75;;;19.00;75.20;;;;;;5484786;26;20009;-37
2024/04/13 02:06:22;;;;;;;3.33;2.63;;;19.00;75.30;;;;;;5475311;26;19995;-39
2024/04/13 02:08:48;;;;;;;3.70;2.55;;;19.00;75.30;;;;;;5486628;26;19998;-38
2024/04/13 02:11:14;;;;;;;3.58;2.60;;;18.90;75.30;;;;;;5481208;26;20009;-36
2024/04/13 02:13:39;;;;;;;4.05;3.00;;;18.90;75.30;;;;;;5473571;26;20003;-33
2024/04/13 02:16:05;;;;;;;3.30;2.40;;;18.90;75.30;;;;;;5485222;26;19998;-34
2024/04/13 02:18:31;;;;;;;3.72;2.40;;;18.90;75.30;;;;;;5484780;26;20074;-35
2024/04/13 02:20:57;;;;;;;3.28;2.55;;;18.90;75.30;;;;;;5472805;26;20458;-37
2024/04/13 02:23:22;;;;;;;3.90;2.70;;;18.80;75.30;;;;;;5459872;26;20608;-39
2024/04/13 02:25:52;;;;;;;3.42;2.60;;;18.90;75.30;;;;;;5462763;26;19994;-39
2024/04/13 02:28:17;;;;;;;4.60;3.03;;;18.80;75.20;;;;;;5477149;26;20699;-35
2024/04/13 02:30:44;;;;;;;3.88;2.60;;;18.80;75.20;;;;;;5465869;26;19995;-38
2024/04/13 02:33:10;;;;;;;4.13;2.72;;;18.80;75.20;;;;;;5486515;26;20426;-33
2024/04/13 02:35:39;;;;;;;3.95;2.70;;;18.80;75.20;;;;;;5461142;26;19999;-35
2024/04/13 02:38:04;;;;;;;5.22;2.63;;;18.80;75.20;;;;;;5458269;26;20283;-38
2024/04/13 02:40:30;;;;;;;4.43;2.90;;;18.80;75.20;;;;;;5461418;26;20010;-36
2024/04/13 02:43:01;;;;;;;3.67;2.63;;;18.70;75.20;;;;;;5469272;26;19998;-38
2024/04/13 02:45:27;;;;;;;3.40;2.72;;;18.70;75.30;;;;;;5477671;26;19999;-38
2024/04/13 02:47:52;;;;;;;3.88;2.83;;;18.70;75.20;;;;;;5483073;26;19995;-34
2024/04/13 02:50:18;;;;;;;4.07;2.65;;;18.60;75.20;;;;;;5462841;26;20331;-39
2024/04/13 02:52:46;;;;;;;3.83;2.83;;;18.70;75.40;;;;;;5462361;26;19995;-39
2024/04/13 02:55:13;;;;;;;3.83;2.80;;;18.70;75.20;;;;;;5481437;26;20046;-36
2024/04/13 02:57:40;;;;;;;3.97;2.80;;;18.60;75.20;;;;;;5465727;26;20419;-39
2024/04/13 03:00:07;;;;;;;3.55;2.63;;;18.60;75.80;;;;;;5473142;26;20007;-36
2024/04/13 03:02:33;;;;;;;4.18;2.67;;;18.60;75.20;;;;;;5474893;26;20012;-36
2024/04/13 03:05:00;;;;;;;3.95;2.58;;;18.60;75.80;;;;;;5484148;26;19997;-36
2024/04/13 03:07:26;;;;;;;4.30;2.88;;;18.60;75.20;;;;;;5465049;26;20017;-36
2024/04/13 03:09:52;;;;;;;4.07;2.70;;;18.60;75.20;;;;;;5474689;26;20007;-35
2024/04/13 03:12:17;;;;;;;3.03;2.60;;;18.50;75.10;;;;;;5459692;26;20020;-36
2024/04/13 03:14:44;;;;;;;3.38;2.58;;;18.50;75.10;;;;;;5459089;26;20074;-32
2024/04/13 03:17:09;;;;;;;4.68;3.00;;;18.50;75.10;;;;;;5456151;26;20025;-32
2024/04/13 03:19:36;;;;;;;3.70;2.80;;;18.50;75.10;;;;;;5480329;26;19998;-37
2024/04/13 03:22:03;;;;;;;3.22;2.40;;;18.50;75.10;;;;;;5468772;26;20467;-34
2024/04/13 03:24:29;;;;;;;4.78;2.72;;;18.50;75.20;;;;;;5465432;26;20044;-37
2024/04/13 03:26:55;;;;;;;3.95;2.85;;;18.50;75.20;;;;;;5467073;26;21685;-34
2024/04/13 03:29:21;;;;;;;3.72;2.58;;;18.40;75.20;;;;;;5479796;26;19991;-38
2024/04/13 03:31:47;;;;;;;4.32;2.88;;;18.40;75.20;;;;;;5474913;26;20018;-35
2024/04/13 03:34:13;;;;;;;4.10;2.58;;;18.40;75.20;;;;;;5461511;26;20041;-34
2024/04/13 03:36:40;;;;;;;3.35;2.53;;;18.40;75.20;;;;;;5471827;26;20022;-37
2024/04/13 03:39:06;;;;;;;3.58;2.80;;;18.40;75.20;;;;;;5470637;26;20014;-36
2024/04/13 03:41:32;;;;;;;4.63;2.60;;;18.30;75.20;;;;;;5463402;26;20529;-39
2024/04/13 03:43:58;;;;;;;3.47;2.55;;;18.30;75.20;;;;;;5460201;26;19999;-39
2024/04/13 03:46:25;;;;;;;4.40;2.90;;;18.30;75.20;;;;;;5463405;26;20466;-31
2024/04/13 03:48:51;;;;;;;3.70;2.58;;;18.30;75.20;;;;;;5468729;26;19994;-40
2024/04/13 03:51:16;;;;;;;3.28;2.55;;;18.30;75.30;;;;;;5460405;26;19998;-38
2024/04/13 03:53:42;;;;;;;3.88;2.90;;;18.20;75.20;;;;;;5473405;26;20003;-40
2024/04/13 03:56:09;;;;;;;3.95;3.17;;;18.20;75.20;;;;;;5482967;26;20015;-36
2024/04/13 03:58:35;;;;;;;4.25;2.92;;;18.20;75.20;;;;;;5473506;26;19995;-36
2024/04/13 04:01:01;;;;;;;5.00;3.10;;;18.20;75.20;;;;;;5471876;26;19998;-38
2024/04/13 04:03:27;;;;;;;3.83;2.80;;;18.20;75.20;;;;;;5482122;26;20018;-37
2024/04/13 04:05:55;;;;;;;3.63;2.75;;;18.20;75.30;;;;;;5477952;26;20007;-37
2024/04/13 04:08:21;;;;;;;3.80;2.80;;;18.10;75.30;;;;;;5491099;25;19995;-36
2024/04/13 04:10:47;;;;;;;3.60;2.80;;;18.10;75.40;;;;;;5466520;26;20018;-38
2024/04/13 04:13:13;;;;;;;4.28;2.60;;;18.10;75.40;;;;;;5465762;26;20058;-39
2024/04/13 04:15:41;;;;;;;3.45;2.72;;;18.10;75.40;;;;;;5456798;26;19998;-39
2024/04/13 04:18:07;;;;;;;4.30;3.15;;;18.10;75.40;;;;;;5482081;26;19995;-38
2024/04/13 04:20:36;;;;;;;5.28;2.80;;;18.00;75.40;;;;;;5481044;26;20003;-38
2024/04/13 04:23:02;;;;;;;3.78;2.80;;;18.00;75.40;;;;;;5475030;26;19994;-37
2024/04/13 04:25:28;;;;;;;3.65;2.90;;;18.00;75.40;;;;;;5469455;26;20010;-39
2024/04/13 04:27:55;;;;;;;3.85;3.15;;;18.00;75.40;;;;;;5470263;26;20005;-38
2024/04/13 04:30:21;;;;;;;5.30;2.85;;;18.00;75.40;;;;;;5482398;26;20007;-39
2024/04/13 04:32:46;;;;;;;4.70;3.42;;;18.00;75.40;;;;;;5479512;26;20018;-37
2024/04/13 04:35:12;;;;;;;4.05;2.95;;;17.90;75.40;;;;;;5463945;26;19995;-38
2024/04/13 04:37:38;;;;;;;5.45;3.03;;;17.90;75.40;;;;;;5472512;26;20055;-37
2024/04/13 04:40:08;;;;;;;4.13;3.03;;;17.90;75.50;;;;;;5468295;26;20003;-36
2024/04/13 04:42:33;;;;;;;4.38;3.20;;;17.90;75.60;;;;;;5472655;26;20069;-36
2024/04/13 04:44:59;;;;;;;4.63;3.28;;;17.90;75.60;;;;;;5483302;26;20027;-37
2024/04/13 04:47:25;;;;;;;4.35;3.15;;;17.80;75.60;;;;;;5489449;26;20009;-38
2024/04/13 04:49:52;;;;;;;5.45;3.58;;;17.80;75.60;;;;;;5478439;26;20282;-39
2024/04/13 04:52:17;;;;;;;4.25;3.10;;;17.80;75.70;;;;;;5463030;26;20027;-38
2024/04/13 04:54:44;;;;;;;4.63;3.05;;;17.80;75.70;;;;;;5475369;26;19995;-36
2024/04/13 04:57:10;;;;;;;4.72;3.40;;;17.80;75.80;;;;;;5452039;26;20025;-38
2024/04/13 04:59:35;;;;;;;4.25;3.13;;;17.80;75.80;;;;;;5469598;26;20373;-32
2024/04/13 05:02:01;;;;;;;5.45;3.58;;;17.70;75.70;;;;;;5469645;26;19995;-37
2024/04/13 05:04:27;;;;;;;4.80;3.22;;;17.70;75.80;;;;;;5471486;26;19999;-36
2024/04/13 05:06:53;;;;;;;4.68;3.00;;;17.70;75.80;;;;;;5470777;26;19998;-40
2024/04/13 05:09:19;;;;;;;4.53;3.38;;;17.70;75.90;;;;;;5467515;26;19999;-39
2024/04/13 05:11:45;;;;;;;4.47;3.28;;;17.60;75.80;;;;;;5481905;26;20009;-40
2024/04/13 05:14:16;;;;;;;5.47;3.40;;;17.60;75.80;;;;;;5472985;26;20002;-39
2024/04/13 05:16:42;;;;;;;4.70;3.08;;;17.60;75.80;;;;;;5468186;26;20009;-38
2024/04/13 05:19:08;;;;;;;4.45;3.08;;;17.60;75.80;;;;;;5481779;26;20014;-39
2024/04/13 05:21:33;;;;;;;4.72;3.53;;;17.60;75.80;;;;;;5472797;26;20053;-37
2024/04/13 05:23:59;;;;;;;4.60;3.33;;;17.60;75.80;;;;;;5482803;26;20017;-37
2024/04/13 05:26:25;;;;;;;4.50;3.35;;;17.60;75.80;;;;;;5474171;26;20012;-39
2024/04/13 05:28:51;;;;;;;3.92;3.00;;;17.60;75.80;;;;;;5460284;26;20002;-36
2024/04/13 05:31:17;;;;;;;5.10;3.40;;;17.60;75.80;;;;;;5479205;26;20114;-40
2024/04/13 05:33:44;;;;;;;5.70;3.55;;;17.50;75.80;;;;;;5476356;26;20018;-38
2024/04/13 05:36:11;;;;;;;4.63;3.13;;;17.50;75.80;;;;;;5464695;26;19998;-33
2024/04/13 05:38:37;;;;;;;5.22;3.97;;;17.50;76.40;;;;;;5493252;26;20009;-38
2024/04/13 05:41:04;;;;;;;5.00;3.75;;;17.50;75.80;;;;;;5495438;26;20014;-39
2024/04/13 05:43:30;;;;;;;4.93;3.47;;;17.50;75.80;;;;;;5475086;25;20017;-38
2024/04/13 05:45:57;;;;;;;4.78;3.53;;;17.50;75.80;;;;;;5484246;26;20010;-38
2024/04/13 05:48:23;;;;;;;5.35;3.55;;;17.40;75.90;;;;;;5473734;26;19995;-38
2024/04/13 05:50:56;;;;;;;5.88;3.55;;;17.40;75.90;;;;;;5476961;26;20052;-38
2024/04/13 05:53:22;;;;;;;4.97;3.50;;;17.50;76.00;;;;;;5488949;26;20012;-38
2024/04/13 05:55:49;;;;;;;4.50;3.28;;;17.40;76.00;;;;;;5484551;26;19999;-40
2024/04/13 05:58:14;;;;;;;4.95;3.47;;;17.50;76.00;;;;;;5484224;26;20094;-36
2024/04/13 06:00:44;;;;;;;4.18;3.50;;;17.40;76.00;;;;;;5468410;26;19999;-39
2024/04/13 06:03:10;;;;;;;4.63;3.53;;;17.40;76.70;;;;;;5464697;26;19998;-41
2024/04/13 06:05:36;;;;;;;4.53;3.47;;;17.40;76.00;;;;;;5478244;26;20013;-38
2024/04/13 06:08:02;;;;;;;4.97;3.40;;;17.40;76.10;;;;;;5484512;26;20002;-39
2024/04/13 06:10:27;;;;;;;5.40;3.45;;;17.40;76.10;;;;;;5509081;26;19998;-37
2024/04/13 06:12:53;;;;;;;4.88;3.70;;;17.40;76.20;;;;;;5483997;26;20054;-37
2024/04/13 06:15:19;;;;;;;4.57;3.30;;;17.40;76.20;;;;;;5463464;26;20340;-33
2024/04/13 06:17:46;;;;;;;5.15;3.60;;;17.30;76.20;;;;;;5450180;26;20585;-36
2024/04/13 06:20:11;;;;;;;5.57;3.65;;;17.30;76.20;;;;;;5463191;26;20018;-39
2024/04/13 06:22:38;;;;;;;4.35;3.35;;;17.30;76.30;;;;;;5467985;26;20009;-37
2024/04/13 06:25:10;;;;;;;5.10;3.60;;;17.30;76.20;;;;;;5472566;26;20005;-39
2024/04/13 06:27:40;;;;;;;4.40;3.47;;;17.40;76.30;;;;;;5476834;26;20007;-35
2024/04/13 06:30:07;;;;;;;4.40;3.35;;;17.30;76.20;;;;;;5462558;26;20044;-37
2024/04/13 06:32:33;;;;;;;4.28;3.40;;;17.30;76.30;;;;;;5483929;26;20024;-37
2024/04/13 06:34:59;;;;;;;4.35;3.35;;;17.40;76.30;;;;;;5461535;26;19991;-33
2024/04/13 06:37:25;;;;;;;4.38;3.17;;;17.40;76.30;;;;;;5463086;26;19998;-38
2024/04/13 06:39:50;;;;;;;4.50;3.20;;;17.40;76.30;;;;;;5476413;26;20002;-36
2024/04/13 06:42:16;;;;;;;4.75;3.50;;;17.40;76.40;;;;;;5463805;26;20002;-35
2024/04/13 06:44:42;;;;;;;3.88;3.10;;;17.40;76.40;;;;;;5471938;26;20006;-36
2024/04/13 06:47:07;;;;;;;4.25;3.33;;;17.40;76.40;;;;;;5471869;26;19994;-36
2024/04/13 06:49:33;;;;;;;4.28;3.03;;;17.40;76.30;;;;;;5465943;26;20010;-33
2024/04/13 06:51:59;;;;;;;4.82;3.33;;;17.40;76.30;;;;;;5487298;26;20002;-33
2024/04/13 06:54:25;;;;;;;5.10;3.83;;;17.40;76.40;;;;;;5475397;26;19994;-35
2024/04/13 06:56:50;;;;;;;4.22;3.45;;;17.40;76.40;;;;;;5458890;26;20003;-32
2024/04/13 06:59:16;;;;;;;4.38;3.20;;;17.50;76.40;;;;;;5462267;26;20014;-35
2024/04/13 07:01:42;;;;;;;4.82;3.65;;;17.50;76.40;;;;;;5480489;26;20011;-36
2024/04/13 07:04:08;;;;;;;4.80;3.55;;;17.50;76.40;;;;;;5472876;26;20005;-36
2024/04/13 07:06:38;;;;;;;4.65;3.55;;;17.50;76.40;;;;;;5482483;26;20319;-34
2024/04/13 07:09:04;;;;;;;4.93;3.65;;;17.50;76.40;;;;;;5468851;26;19998;-32
2024/04/13 07:11:30;;;;;;;4.75;3.60;;;17.50;76.40;;;;;;5467715;26;20014;-34
2024/04/13 07:13:56;;;;;;;5.03;3.58;;;17.50;76.40;;;;;;5462064;26;20353;-33
2024/04/13 07:16:21;;;;;;;4.90;3.22;;;17.50;76.40;;;;;;5460893;26;20002;-37
2024/04/13 07:18:47;;;;;;;5.57;4.10;;;17.50;76.40;;;;;;5474101;26;20017;-36
2024/04/13 07:21:13;;;;;;;5.15;3.92;;;17.50;76.40;;;;;;5484190;26;20438;-33
2024/04/13 07:23:39;;;;;;;6.20;3.70;;;17.60;76.50;;;;;;5479226;26;20517;-35
2024/04/13 07:26:04;;;;;;;5.55;3.55;;;17.60;76.40;;;;;;5475198;26;19994;-37
2024/04/13 07:28:31;;;;;;;4.63;3.45;;;17.60;76.40;;;;;;5466236;26;20013;-39
2024/04/13 07:30:58;;;;;;;4.63;3.80;;;17.60;76.40;;;;;;5480241;26;20013;-38
2024/04/13 07:33:23;;;;;;;5.18;3.75;;;17.70;76.40;;;;;;5468881;26;20002;-37
2024/04/13 07:35:49;;;;;;;5.72;4.10;;;17.70;76.40;;;;;;5468431;26;20021;-37
2024/04/13 07:38:15;;;;;;;4.85;3.72;;;17.70;76.40;;;;;;5486697;26;20069;-39
2024/04/13 07:40:41;;;;;;;5.22;4.05;;;17.70;76.40;;;;;;5486671;26;20016;-36
2024/04/13 07:43:06;;;;;;;5.68;4.28;;;17.80;76.40;;;;;;5483492;26;20009;-35
2024/04/13 07:45:32;;;;;;;5.10;4.03;;;17.80;76.40;;;;;;5461668;26;20003;-36
2024/04/13 07:47:58;;;;;;;6.28;4.47;;;17.80;76.40;;;;;;5465245;26;19998;-37
2024/04/13 07:50:24;;;;;;;5.88;4.30;;;17.90;76.40;;;;;;5470610;26;20007;-41
2024/04/13 07:52:50;;;;;;;6.53;4.65;;;17.90;76.30;;;;;;5460665;26;19995;-39
2024/04/13 07:55:16;;;;;;;6.03;4.35;;;17.90;76.30;;;;;;5485287;26;20013;-38
2024/04/13 07:57:41;;;;;;;5.50;4.05;;;17.90;76.30;;;;;;5464255;26;20416;-38
2024/04/13 08:00:09;;;;;;;6.38;4.63;;;17.90;76.30;;;;;;5456288;26;19994;-39
2024/04/13 08:02:39;;;;;;;5.22;3.88;;;18.00;76.30;;;;;;5483520;26;20411;-40
2024/04/13 08:05:08;;;;;;;6.53;4.43;;;18.00;76.30;;;;;;5473694;26;20357;-36
2024/04/13 08:07:35;;;;;;;5.72;4.22;;;18.10;76.30;;;;;;5465832;26;20034;-35
2024/04/13 08:10:00;;;;;;;6.10;4.15;;;18.10;76.30;;;;;;5481205;26;19998;-37
2024/04/13 08:12:26;;;;;;;6.55;4.40;;;18.10;76.30;;;;;;5480050;26;19994;-38
2024/04/13 08:14:52;;;;;;;6.03;4.50;;;18.10;76.30;;;;;;5469929;26;20007;-38
2024/04/13 08:17:17;;;;;;;5.80;4.53;;;18.20;76.90;;;;;;5481584;26;20006;-40
2024/04/13 08:19:43;;;;;;;5.80;4.38;;;18.20;76.80;;;;;;5488699;26;20009;-39
2024/04/13 08:22:09;;;;;;;5.57;4.20;;;18.20;76.20;;;;;;5460102;26;20017;-33
2024/04/13 08:24:36;;;;;;;5.53;4.70;;;18.20;76.20;;;;;;5463299;26;20009;-37
2024/04/13 08:27:01;;;;;;;6.47;4.47;;;18.30;76.20;;;;;;5483327;26;19994;-35
2024/04/13 08:29:27;;;;;;;6.03;4.85;;;18.30;76.20;;;;;;5473328;26;20009;-38
2024/04/13 08:31:53;;;;;;;5.32;4.28;;;18.40;76.30;;;;;;5486290;26;20006;-36
2024/04/13 08:34:18;;;;;;;7.50;4.68;;;18.40;76.20;;;;;;5464438;26;20008;-38
2024/04/13 08:36:45;;;;;;;5.75;4.53;;;18.40;76.20;;;;;;5484383;26;20092;-35
2024/04/13 08:39:12;;;;;;;5.90;4.65;;;18.50;76.20;;;;;;5483168;26;20014;-35
2024/04/13 08:41:53;;;;;;;7.53;5.10;;;18.50;76.10;;;;;;5486689;26;20468;-36
2024/04/13 08:44:19;;;;;;;6.38;4.57;;;18.60;76.80;;;;;;5488454;26;20084;-37
2024/04/13 08:46:46;;;;;;;5.63;4.78;;;18.60;76.00;;;;;;5460902;26;20010;-35
2024/04/13 08:49:15;;;;;;;5.95;4.60;;;18.70;76.10;;;;;;5458412;26;20605;-38
2024/04/13 08:51:43;;;;;;;5.93;4.72;;;18.70;76.00;;;;;;5461557;26;20010;-40
2024/04/13 08:54:09;;;;;;;6.95;4.88;;;18.80;76.00;;;;;;5489236;26;20996;-38
2024/04/13 08:56:39;;;;;;;5.38;4.50;;;18.90;75.90;;;;;;5495897;26;20023;-37
2024/04/13 08:59:09;;;;;;;6.70;4.25;;;18.90;75.90;;;;;;5466689;26;20048;-35
2024/04/13 09:01:37;;;;;;;8.38;4.82;;;18.90;75.80;;;;;;5469786;26;19994;-39
2024/04/13 09:04:03;;;;;;;5.43;4.50;;;19.00;75.80;;;;;;5464325;26;20003;-39
2024/04/13 09:06:28;;;;;;;5.90;4.82;;;19.10;75.80;;;;;;5461075;26;20447;-37
2024/04/13 09:08:55;;;;;;;5.95;4.55;;;19.10;75.70;;;;;;5465615;26;20011;-39
2024/04/13 09:11:22;;;;;;;6.03;5.30;;;19.10;75.60;;;;;;5460733;26;19999;-33
2024/04/13 09:13:51;;;;;;;6.35;5.10;;;19.20;75.60;;;;;;5480127;26;20051;-38
2024/04/13 09:16:17;;;;;;;5.88;4.90;;;19.30;75.60;;;;;;5480831;26;20031;-37
2024/04/13 09:18:43;;;;;;;5.60;4.75;;;19.40;75.60;;;;;;5475595;26;20010;-37
2024/04/13 09:21:09;;;;;;;6.38;4.53;;;19.40;75.50;;;;;;5479145;26;20075;-38
2024/04/13 09:23:35;;;;;;;6.38;5.45;;;19.50;75.50;;;;;;5489688;26;20008;-38
2024/04/13 09:26:04;;;;;;;6.13;4.63;;;19.50;75.40;;;;;;5483076;26;20424;-36
2024/04/13 09:28:45;;;;;;;6.53;5.18;;;19.60;75.50;;;;;;5491657;25;19999;-39
2024/04/13 09:31:12;;;;;;;5.88;4.68;;;19.70;75.50;;;;;;5469242;26;20027;-37
2024/04/13 09:33:39;;;;;;;6.30;5.30;;;19.70;75.30;;;;;;5470149;26;20500;-39
2024/04/13 09:36:05;;;;;;;6.07;4.78;;;19.80;75.30;;;;;;5475477;26;20047;-39
2024/04/13 09:38:31;;;;;;;7.00;4.72;;;19.80;75.20;;;;;;5457484;26;19994;-37
2024/04/13 09:40:57;;;;;;;6.20;4.93;;;19.90;75.20;;;;;;5455738;26;20089;-39
2024/04/13 09:43:23;;;;;;;6.07;4.65;;;20.00;75.20;;;;;;5458580;26;20013;-41
2024/04/13 09:46:01;;;;;;;6.03;4.75;;;20.10;75.20;;;;;;5476122;26;19999;-38
2024/04/13 09:48:27;;;;;;;5.70;4.75;;;20.20;75.20;;;;;;5479396;26;20046;-33
2024/04/13 09:50:53;;;;;;;5.97;4.68;;;20.20;75.00;;;;;;5486662;26;20006;-35
2024/04/13 09:53:19;;;;;;;5.47;4.70;;;20.30;74.90;;;;;;5478057;26;20009;-38
2024/04/13 09:55:45;;;;;;;6.93;5.13;;;20.30;74.90;;;;;;5472642;26;20009;-38
2024/04/13 09:58:15;;;;;;;6.07;4.88;;;20.40;74.90;;;;;;5488871;26;19998;-40
2024/04/13 10:00:48;;;;;;;6.15;4.90;;;20.50;74.90;;;;;;5473604;26;20010;-37
2024/04/13 10:03:15;;;;;;;6.55;4.50;;;20.50;74.80;;;;;;5483981;26;20003;-38
2024/04/13 10:05:43;;;;;;;6.28;4.72;;;20.60;74.80;;;;;;5477487;26;20009;-39
2024/04/13 10:08:09;;;;;;;6.43;4.93;;;20.70;74.80;;;;;;5490006;26;19998;-34
2024/04/13 10:10:39;;;;;;;5.45;4.65;;;20.80;74.80;;;;;;5468105;26;19998;-38
2024/04/13 10:13:06;;;;;;;5.70;4.55;;;20.80;74.70;;;;;;5479774;26;19998;-40
2024/04/13 10:15:33;;;;;;;6.68;4.93;;;20.90;74.70;;;;;;5467501;26;20003;-39
2024/04/13 10:18:01;;;;;;;6.05;4.53;;;21.00;74.60;;;;;;5489034;26;20008;-38
2024/04/13 10:20:28;;;;;;;5.90;4.45;;;21.10;74.60;;;;;;5486254;26;19998;-39
2024/04/13 10:22:55;;;;;;;7.50;5.13;;;21.20;74.60;;;;;;5466459;26;19991;-40
2024/04/13 10:25:28;;;;;;;6.68;4.93;;;21.20;74.50;;;;;;5478221;26;20023;-36
2024/04/13 10:28:08;;;;;;;6.57;4.78;;;21.30;74.50;;;;;;5465483;26;20016;-38
2024/04/13 10:30:53;;;;;;;5.65;4.53;;;21.40;74.50;;;;;;5463244;26;20001;-38
2024/04/13 10:33:30;;;;;;;6.20;4.28;;;21.50;74.40;;;;;;5480869;26;20558;-39
2024/04/13 10:36:00;;;;;;;5.47;4.32;;;21.60;74.40;;;;;;5487605;26;19999;-39
2024/04/13 10:38:27;;;;;;;6.40;4.40;;;21.70;74.40;;;;;;5492535;26;20002;-38
2024/04/13 10:40:54;;;;;;;5.35;4.38;;;21.70;74.40;;;;;;5461372;26;19999;-35
2024/04/13 10:43:21;;;;;;;6.53;4.50;;;21.80;74.30;;;;;;5477547;26;19998;-39
2024/04/13 10:45:56;;;;;;;4.88;4.15;;;21.90;74.30;;;;;;5455914;26;20037;-36
2024/04/13 10:48:22;;;;;;;5.40;4.10;;;22.00;74.30;;;;;;5480134;26;20014;-37
2024/04/13 10:50:50;;;;;;;5.65;4.53;;;22.10;74.20;;;;;;5460964;26;19998;-39
2024/04/13 10:53:16;;;;;;;6.82;4.57;;;22.20;74.30;;;;;;5459483;26;19999;-37
2024/04/13 10:55:43;;;;;;;5.68;4.63;;;22.30;74.30;;;;;;5462436;26;20462;-40
2024/04/13 10:58:09;;;;;;;7.13;4.35;;;22.40;74.30;;;;;;5467890;26;19999;-38
2024/04/13 11:00:35;;;;;;;6.45;4.38;;;22.40;74.20;;;;;;5485977;26;20008;-40
2024/04/13 11:03:01;;;;;;;6.65;4.40;;;22.50;73.80;;;;;;5490620;26;20010;-39
2024/04/13 11:05:27;;;;;;;6.57;4.18;;;22.60;73.40;;;;;;5488674;26;20067;-39
2024/04/13 11:07:53;;;;;;;6.88;4.18;;;22.70;73.00;;;;;;5472614;26;20014;-38
2024/04/13 11:10:20;;;;;;;4.95;3.83;;;22.70;72.60;;;;;;5481766;26;20013;-40
2024/04/13 11:12:47;;;;;;;6.45;3.65;;;22.80;72.30;;;;;;5481054;26;20014;-35
2024/04/13 11:15:13;;;;;;;5.97;3.72;;;22.90;71.90;;;;;;5484501;26;20006;-35
2024/04/13 11:17:39;;;;;;;6.97;3.65;;;23.00;71.60;;;;;;5462430;26;20430;-35
2024/04/13 11:20:06;;;;;;;5.00;3.42;;;23.00;71.30;;;;;;5475300;26;19995;-36
2024/04/13 11:22:33;;;;;;;4.93;3.38;;;23.10;71.30;;;;;;5457779;26;19999;-33
2024/04/13 11:25:00;;;;;;;4.70;3.45;;;23.20;70.80;;;;;;5466468;26;19995;-32
2024/04/13 11:27:25;;;;;;;5.38;3.38;;;23.20;70.60;;;;;;5462716;26;20017;-37
2024/04/13 11:29:52;;;;;;;5.38;3.47;;;23.30;70.40;;;;;;5448542;26;20002;-36
2024/04/13 11:32:18;;;;;;;5.65;3.40;;;23.30;70.40;;;;;;5490947;26;20012;-36
2024/04/13 11:34:44;;;;;;;5.03;3.00;;;23.40;70.50;;;;;;5475414;26;20017;-35
2024/04/13 11:37:10;;;;;;;6.38;3.22;;;23.50;70.70;;;;;;5459392;26;20002;-33
2024/04/13 11:39:37;;;;;;;5.40;3.00;;;23.50;70.80;;;;;;5476784;26;20071;-33
2024/04/13 11:42:06;;;;;;;5.60;3.22;;;23.60;70.90;;;;;;5469687;26;20002;-37
2024/04/13 11:44:32;;;;;;;4.13;2.63;;;23.60;70.90;;;;;;5486743;26;20009;-39
2024/04/13 11:46:59;;;;;;;3.83;2.80;;;23.70;71.10;;;;;;5471640;26;20002;-33
2024/04/13 11:49:26;;;;;;;5.05;3.10;;;23.70;71.10;;;;;;5470270;26;20039;-36
2024/04/13 11:51:52;;;;;;;3.20;2.60;;;23.80;71.30;;;;;;5456173;26;20075;-35
2024/04/13 11:54:19;;;;;;;5.22;2.92;;;23.80;71.30;;;;;;5477809;26;19994;-35
2024/04/13 11:56:45;;;;;;;3.80;2.67;;;23.90;71.40;;;;;;5486840;26;20009;-33
2024/04/13 11:59:14;;;;;;;3.47;2.55;;;24.00;71.40;;;;;;5455307;26;20000;-35
2024/04/13 12:01:40;;;;;;;5.30;2.90;;;24.00;71.40;;;;;;5462831;26;19995;-36
2024/04/13 12:04:06;;;;;;;4.47;2.70;;;24.00;71.40;;;;;;5487091;26;20446;-34
2024/04/13 12:06:32;;;;;;;4.18;2.78;;;24.10;71.50;;;;;;5482370;26;20027;-38
2024/04/13 12:08:59;;;;;;;4.00;2.58;;;24.10;71.50;;;;;;5471516;26;20010;-38
2024/04/13 12:11:29;;;;;;;4.70;2.75;;;24.20;71.50;;;;;;5458934;26;19999;-33
2024/04/13 12:13:54;;;;;;;4.03;2.50;;;24.20;71.50;;;;;;5466143;26;20096;-36
2024/04/13 12:16:20;;;;;;;3.70;2.60;;;24.30;71.60;;;;;;5469634;26;20355;-33
2024/04/13 12:18:46;;;;;;;4.03;2.22;;;24.40;71.80;;;;;;5480861;26;20002;-36
2024/04/13 12:21:11;;;;;;;5.07;2.33;;;24.40;71.90;;;;;;5471665;26;21059;-35
2024/04/13 12:23:37;;;;;;;4.45;2.45;;;24.40;72.00;;;;;;5459932;26;19999;-37
2024/04/13 12:26:03;;;;;;;3.35;1.98;;;24.50;72.10;;;;;;5462929;26;19994;-36
2024/04/13 12:28:29;;;;;;;4.25;2.55;;;24.60;72.10;;;;;;5483419;26;20006;-35
2024/04/13 12:30:55;;;;;;;3.97;2.03;;;24.60;72.00;;;;;;5463689;26;20010;-37
2024/04/13 12:33:21;;;;;;;3.97;2.28;;;24.60;72.10;;;;;;5460605;26;19999;-34
2024/04/13 12:35:47;;;;;;;3.53;2.17;;;24.70;72.10;;;;;;5463890;26;20020;-32
2024/04/13 12:38:12;;;;;;;3.53;2.25;;;24.70;72.10;;;;;;5459475;26;20002;-34
2024/04/13 12:40:38;;;;;;;3.35;2.20;;;24.70;72.00;;;;;;5486856;26;20009;-37
2024/04/13 12:43:06;;;;;;;3.00;2.35;;;24.80;72.10;;;;;;5476126;26;20010;-35
2024/04/13 12:45:32;;;;;;;2.58;2.08;;;24.90;72.10;;;;;;5472455;26;20330;-36